Time;durP1;ratioP1;P1;durP2;ratioP2;P2;SDS_P1;SDS_P2;PMS_P1;PMS_P2;Temp;Humidity;BMP_temperature;BMP_pressure;BME280_temperature;BME280_humidity;BME280_pressure;Samples;Min_cycle;Max_cycle;Signal;HPM_P1;HPM_P2
2021/11/12 00:13:35;;;;;;;5.15;3.72;;;9.80;99.90;;;;;;4880653;29;20100;-44
2021/11/12 00:16:03;;;;;;;4.50;3.63;;;9.80;99.90;;;;;;4871845;29;20137;-47
2021/11/12 00:18:34;;;;;;;4.68;3.55;;;9.80;99.90;;;;;;4882639;29;20056;-49
2021/11/12 00:21:01;;;;;;;4.68;3.50;;;9.80;99.90;;;;;;4884457;29;20127;-48
2021/11/12 00:23:29;;;;;;;4.63;3.72;;;9.80;99.90;;;;;;4882825;29;20264;-47
2021/11/12 00:25:56;;;;;;;3.95;3.13;;;9.80;99.90;;;;;;4888593;29;20164;-53
2021/11/12 00:28:25;;;;;;;3.60;2.97;;;9.80;99.90;;;;;;4888608;29;20139;-47
2021/11/12 00:38:28;;;;;;;3.85;3.40;;;9.80;99.90;;;;;;4870938;29;20053;-47
2021/11/12 00:40:59;;;;;;;6.28;2.78;;;9.80;99.90;;;;;;4874962;29;20132;-45
2021/11/12 00:48:48;;;;;;;3.28;2.45;;;9.70;99.90;;;;;;4863800;29;20064;-50
2021/11/12 00:53:52;;;;;;;3.28;1.98;;;9.70;99.90;;;;;;4876749;29;20053;-46
2021/11/12 00:56:20;;;;;;;2.55;1.80;;;9.60;99.90;;;;;;4885545;29;20127;-46
2021/11/12 00:58:46;;;;;;;2.70;2.00;;;9.60;99.90;;;;;;4878190;29;20084;-47
2021/11/12 01:01:13;;;;;;;3.35;2.33;;;9.70;99.90;;;;;;4881435;29;20045;-50
2021/11/12 01:03:41;;;;;;;2.95;1.92;;;9.70;99.90;;;;;;4879422;29;20481;-49
2021/11/12 01:06:09;;;;;;;3.05;1.92;;;9.70;99.90;;;;;;4867514;29;20550;-48
2021/11/12 01:08:35;;;;;;;2.90;1.80;;;9.60;99.90;;;;;;4880549;29;20146;-47
2021/11/12 01:11:03;;;;;;;3.08;2.10;;;9.60;99.90;;;;;;4885460;29;20578;-48
2021/11/12 01:13:30;;;;;;;2.90;2.40;;;9.70;99.90;;;;;;4860934;29;20127;-49
2021/11/12 01:15:57;;;;;;;3.22;2.30;;;9.70;99.90;;;;;;4888293;29;20119;-50
2021/11/12 01:18:24;;;;;;;2.72;2.20;;;9.70;99.90;;;;;;4883673;29;20100;-45
2021/11/12 01:20:51;;;;;;;3.85;2.22;;;9.70;99.90;;;;;;4840407;29;20088;-48
2021/11/12 01:23:18;;;;;;;3.10;2.20;;;9.70;99.90;;;;;;4870347;29;20136;-46
2021/11/12 01:25:45;;;;;;;2.90;2.47;;;9.80;99.90;;;;;;4872217;29;20085;-48
2021/11/12 01:28:12;;;;;;;4.50;2.50;;;9.80;99.90;;;;;;4871975;29;20136;-47
2021/11/12 01:30:39;;;;;;;5.05;2.88;;;9.80;99.90;;;;;;4879868;29;20052;-48
2021/11/12 01:33:06;;;;;;;3.97;3.00;;;9.90;99.90;;;;;;4887659;29;20088;-44
2021/11/12 01:35:34;;;;;;;4.05;2.70;;;9.90;99.90;;;;;;4879438;29;20048;-48
2021/11/12 01:38:01;;;;;;;5.68;2.88;;;9.90;99.90;;;;;;4888494;29;20135;-51
2021/11/12 01:40:29;;;;;;;3.97;3.13;;;9.90;99.90;;;;;;4890838;29;20076;-50
2021/11/12 01:43:05;;;;;;;3.90;3.10;;;9.90;99.90;;;;;;4875875;29;20136;-47
2021/11/12 01:48:26;;;;;;;4.10;3.67;;;10.00;99.90;;;;;;4868429;29;20139;-45
2021/11/12 01:53:36;;;;;;;4.45;3.50;;;10.00;99.90;;;;;;4887933;29;20445;-48
2021/11/12 02:01:25;;;;;;;4.68;3.45;;;10.10;99.90;;;;;;4858479;29;20049;-48
2021/11/12 02:03:53;;;;;;;4.05;3.30;;;10.00;99.90;;;;;;4876050;29;20452;-55
2021/11/12 02:06:23;;;;;;;3.83;3.35;;;10.00;99.90;;;;;;4890771;29;20076;-47
2021/11/12 02:08:50;;;;;;;4.63;3.40;;;10.00;99.90;;;;;;4888464;29;20131;-52
2021/11/12 02:11:19;;;;;;;4.60;3.25;;;10.00;99.90;;;;;;4890438;29;20135;-46
2021/11/12 02:13:48;;;;;;;4.10;3.13;;;9.90;99.90;;;;;;4873608;29;20195;-48
2021/11/12 02:16:21;;;;;;;5.47;3.50;;;10.00;99.90;;;;;;4890968;29;20048;-47
2021/11/12 02:18:48;;;;;;;4.65;3.03;;;10.00;99.90;;;;;;4890184;29;20558;-49
2021/11/12 02:26:19;;;;;;;5.00;3.50;;;9.90;99.90;;;;;;4873649;29;20099;-46
2021/11/12 02:28:48;;;;;;;4.30;2.90;;;9.90;99.90;;;;;;4880007;29;20089;-50
2021/11/12 02:31:15;;;;;;;3.72;3.03;;;9.90;99.90;;;;;;4880627;29;20080;-53
2021/11/12 02:33:42;;;;;;;4.07;3.33;;;9.90;99.90;;;;;;4874242;29;20075;-47
2021/11/12 02:36:12;;;;;;;4.50;3.30;;;9.80;99.90;;;;;;4892062;29;20127;-45
2021/11/12 02:38:42;;;;;;;5.68;3.40;;;9.80;99.90;;;;;;4890055;29;20483;-50
2021/11/12 02:41:09;;;;;;;5.25;4.13;;;9.80;99.90;;;;;;4882239;29;20080;-53
2021/11/12 02:43:36;;;;;;;3.95;2.70;;;9.80;99.90;;;;;;4882222;29;20139;-49
2021/11/12 02:46:04;;;;;;;4.30;3.33;;;9.80;99.90;;;;;;4885667;29;20152;-51
2021/11/12 02:48:36;;;;;;;4.05;3.20;;;9.80;99.90;;;;;;4890555;29;20056;-46
2021/11/12 02:51:09;;;;;;;5.40;3.42;;;9.70;99.90;;;;;;4890578;29;20092;-50
2021/11/12 02:53:36;;;;;;;4.50;3.40;;;9.70;99.90;;;;;;4888155;29;20076;-48
2021/11/12 02:56:08;;;;;;;5.63;3.20;;;9.70;99.90;;;;;;4882697;29;20095;-50
2021/11/12 02:58:37;;;;;;;3.97;3.55;;;9.70;99.90;;;;;;4873728;29;20136;-48
2021/11/12 03:01:05;;;;;;;4.72;3.65;;;9.60;99.90;;;;;;4890568;29;20053;-47
2021/11/12 03:03:32;;;;;;;5.38;3.75;;;9.60;99.90;;;;;;4889448;29;20080;-49
2021/11/12 03:05:59;;;;;;;4.47;3.35;;;9.70;99.90;;;;;;4880767;29;20573;-50
2021/11/12 03:08:27;;;;;;;4.07;3.67;;;9.70;99.90;;;;;;4888733;29;20139;-51
2021/11/12 03:10:55;;;;;;;6.05;4.40;;;9.70;99.90;;;;;;4889925;29;20632;-50
2021/11/12 03:13:23;;;;;;;5.60;4.50;;;9.70;99.90;;;;;;4872937;29;20420;-48
2021/11/12 03:15:50;;;;;;;4.20;3.38;;;9.70;99.90;;;;;;4880998;29;20480;-50
2021/11/12 03:18:17;;;;;;;5.28;4.25;;;9.70;99.90;;;;;;4872419;29;20135;-52
2021/11/12 03:20:45;;;;;;;4.82;4.05;;;9.70;99.90;;;;;;4889998;29;20557;-47
2021/11/12 03:23:19;;;;;;;6.35;4.45;;;9.80;99.90;;;;;;4871334;29;20143;-52
2021/11/12 03:26:19;;;;;;;6.85;4.80;;;9.80;99.90;;;;;;4883511;29;20095;-46
2021/11/12 04:01:38;;;;;;;8.32;5.20;;;10.10;99.90;;;;;;4879465;29;20087;-50
2021/11/12 05:52:15;;;;;;;7.07;5.63;;;11.10;99.90;;;;;;4888643;29;20261;-52
2021/11/12 05:55:29;;;;;;;8.18;5.00;;;11.20;99.90;;;;;;4886928;29;20084;-50
2021/11/12 05:57:30;;;;;;;6.18;4.63;;;11.20;99.90;;;;;;4861373;29;20485;-52
2021/11/12 05:59:57;;;;;;;5.43;4.15;;;11.30;99.90;;;;;;4858114;29;20084;-47
2021/11/12 06:02:24;;;;;;;6.18;4.47;;;11.40;99.90;;;;;;4886982;29;20131;-49
2021/11/12 06:04:51;;;;;;;6.70;4.72;;;11.50;99.90;;;;;;4887217;29;20053;-51
2021/11/12 06:07:18;;;;;;;7.60;4.95;;;11.60;99.90;;;;;;4885495;29;20426;-49
2021/11/12 06:09:45;;;;;;;6.32;4.35;;;11.60;99.90;;;;;;4887921;29;20425;-50
2021/11/12 06:12:13;;;;;;;8.65;4.07;;;11.60;99.90;;;;;;4889932;29;20060;-51
2021/11/12 06:14:40;;;;;;;7.13;4.35;;;11.60;99.90;;;;;;4889982;29;20128;-51
2021/11/12 06:17:07;;;;;;;4.13;3.63;;;11.70;99.90;;;;;;4871175;29;20443;-51
2021/11/12 06:19:34;;;;;;;8.30;4.15;;;11.60;99.90;;;;;;4877685;29;20144;-49
2021/11/12 06:22:01;;;;;;;7.43;4.38;;;11.60;99.90;;;;;;4877434;29;20143;-52
2021/11/12 06:24:27;;;;;;;7.10;3.80;;;11.60;99.90;;;;;;4877070;29;20136;-52
2021/11/12 06:26:54;;;;;;;5.22;3.78;;;11.60;99.90;;;;;;4879642;29;20049;-52
2021/11/12 06:29:21;;;;;;;5.80;4.00;;;11.70;99.90;;;;;;4875416;29;20140;-47
2021/11/12 06:31:48;;;;;;;7.90;3.80;;;11.70;99.90;;;;;;4877753;29;20140;-48
2021/11/12 06:34:15;;;;;;;7.63;4.00;;;11.70;99.90;;;;;;4879944;29;20084;-46
2021/11/12 06:36:42;;;;;;;6.53;3.58;;;11.80;99.90;;;;;;4878389;29;20133;-49
2021/11/12 06:39:10;;;;;;;4.45;3.33;;;11.80;99.90;;;;;;4874448;29;20084;-50
2021/11/12 06:49:39;;;;;;;6.45;3.83;;;12.00;99.90;;;;;;4872278;29;20505;-52
2021/11/12 06:52:08;;;;;;;4.55;3.20;;;12.00;99.90;;;;;;4856652;29;20133;-52
2021/11/12 06:54:35;;;;;;;4.53;3.30;;;12.10;99.90;;;;;;4845172;29;20670;-48
2021/11/12 06:57:02;;;;;;;5.40;3.15;;;12.10;99.90;;;;;;4880664;29;20135;-52
2021/11/12 06:59:29;;;;;;;4.68;3.28;;;12.10;99.90;;;;;;4866441;29;20092;-50
2021/11/12 07:01:55;;;;;;;8.10;3.97;;;12.10;99.90;;;;;;4879184;29;20072;-50
2021/11/12 07:04:22;;;;;;;6.47;4.28;;;12.10;99.90;;;;;;4883325;29;20063;-52
2021/11/12 07:06:49;;;;;;;6.28;3.95;;;12.10;99.90;;;;;;4883252;29;20532;-53
2021/11/12 07:09:16;;;;;;;7.25;3.55;;;12.10;99.90;;;;;;4878215;29;20059;-51
2021/11/12 07:11:43;;;;;;;7.95;4.03;;;12.10;99.90;;;;;;4872202;29;20132;-46
2021/11/12 07:14:10;;;;;;;6.05;4.22;;;12.20;99.90;;;;;;4878178;29;20152;-53
2021/11/12 07:16:37;;;;;;;5.50;3.83;;;12.20;99.90;;;;;;4880801;29;20151;-52
2021/11/12 07:19:04;;;;;;;5.20;3.58;;;12.20;99.90;;;;;;4874173;29;20057;-50
2021/11/12 07:21:30;;;;;;;6.25;3.53;;;12.30;99.90;;;;;;4875130;29;20187;-57
2021/11/12 07:24:00;;;;;;;6.78;3.88;;;12.30;99.90;;;;;;4880417;29;20218;-49
2021/11/12 07:26:27;;;;;;;6.93;3.60;;;12.30;99.90;;;;;;4882169;29;20429;-53
2021/11/12 07:28:54;;;;;;;4.90;3.47;;;12.30;99.90;;;;;;4877041;29;20366;-51
2021/11/12 07:31:40;;;;;;;6.18;3.35;;;12.30;99.90;;;;;;4874942;29;20057;-51
2021/11/12 07:34:07;;;;;;;4.70;3.50;;;12.30;99.90;;;;;;4864018;29;20097;-51
2021/11/12 07:36:39;;;;;;;5.28;3.55;;;12.40;99.90;;;;;;4867905;29;20520;-49
2021/11/12 07:47:15;;;;;;;4.67;2.93;;;12.50;99.90;;;;;;4859797;29;20142;-48
2021/11/12 07:49:54;;;;;;;4.10;2.92;;;12.60;99.90;;;;;;4858994;29;20418;-49
2021/11/12 07:52:22;;;;;;;7.55;4.40;;;12.60;99.90;;;;;;4874942;29;20493;-48
2021/11/12 07:54:49;;;;;;;5.22;3.70;;;12.60;99.90;;;;;;4879570;29;20147;-51
2021/11/12 07:57:17;;;;;;;7.30;4.13;;;12.60;99.90;;;;;;4879699;29;20128;-52
2021/11/12 07:59:44;;;;;;;5.97;3.80;;;12.60;99.90;;;;;;4882944;29;20109;-49
2021/11/12 08:02:13;;;;;;;5.25;3.53;;;12.60;99.90;;;;;;4880169;29;20059;-51
2021/11/12 08:04:41;;;;;;;6.32;4.10;;;12.70;99.90;;;;;;4878569;29;20064;-54
2021/11/12 08:07:09;;;;;;;6.30;3.47;;;12.70;99.90;;;;;;4879624;29;20056;-51
2021/11/12 08:09:40;;;;;;;5.32;3.60;;;12.70;99.90;;;;;;4871987;29;20143;-51
2021/11/12 08:12:11;;;;;;;8.15;3.90;;;12.70;99.90;;;;;;4880915;29;20057;-53
2021/11/12 08:17:33;;;;;;;6.60;3.70;;;12.70;99.90;;;;;;4882177;29;20056;-54
2021/11/12 08:20:10;;;;;;;6.35;3.67;;;12.70;99.90;;;;;;4881887;29;20140;-54
2021/11/12 08:25:24;;;;;;;7.10;4.60;;;12.80;99.90;;;;;;4880580;29;20173;-47
2021/11/12 08:31:03;;;;;;;6.97;5.10;;;12.90;99.90;;;;;;4882532;29;20088;-51
2021/11/12 08:33:39;;;;;;;6.78;4.28;;;12.90;99.90;;;;;;4867735;29;20220;-52
2021/11/12 08:38:45;;;;;;;7.10;4.22;;;12.90;99.90;;;;;;4876048;29;20084;-48
2021/11/12 08:41:18;;;;;;;7.57;4.75;;;12.90;99.90;;;;;;4869083;29;20051;-51
2021/11/12 08:43:57;;;;;;;6.72;4.18;;;12.80;99.90;;;;;;4868533;29;20097;-52
2021/11/12 08:46:40;;;;;;;6.97;5.38;;;12.80;99.90;;;;;;4882792;29;20049;-52
2021/11/12 08:49:13;;;;;;;5.60;4.30;;;12.80;99.90;;;;;;4878203;29;20220;-51
2021/11/12 08:51:41;;;;;;;7.70;4.00;;;12.70;99.90;;;;;;4880341;29;20060;-53
2021/11/12 08:54:09;;;;;;;7.53;4.80;;;12.70;99.90;;;;;;4877251;29;20088;-50
2021/11/12 08:56:36;;;;;;;5.60;4.20;;;12.70;99.90;;;;;;4859270;29;20059;-52
2021/11/12 08:59:04;;;;;;;5.90;4.40;;;12.80;99.90;;;;;;4872774;29;20048;-50
2021/11/12 09:01:32;;;;;;;6.75;3.88;;;12.70;99.90;;;;;;4874329;29;20057;-50
2021/11/12 09:03:59;;;;;;;4.75;3.70;;;12.80;99.90;;;;;;4866383;29;20068;-48
2021/11/12 09:06:26;;;;;;;5.03;3.78;;;12.70;99.90;;;;;;4868746;29;20125;-51
2021/11/12 09:08:53;;;;;;;6.57;3.42;;;12.70;99.90;;;;;;4854661;29;20106;-50
2021/11/12 09:11:20;;;;;;;4.88;3.50;;;12.70;99.90;;;;;;4879428;29;20147;-53
2021/11/12 09:13:57;;;;;;;5.63;3.17;;;12.70;99.90;;;;;;4858118;29;20160;-49
2021/11/12 09:16:31;;;;;;;5.68;3.63;;;12.80;99.90;;;;;;4859730;29;20227;-50
2021/11/12 09:19:04;;;;;;;5.72;3.30;;;12.80;99.90;;;;;;4868939;29;20061;-51
2021/11/12 09:21:33;;;;;;;5.25;3.47;;;12.80;99.90;;;;;;4881354;29;20496;-51
2021/11/12 09:24:00;;;;;;;4.55;3.42;;;12.80;99.90;;;;;;4867652;29;20530;-51
2021/11/12 09:26:26;;;;;;;4.68;3.13;;;12.80;99.90;;;;;;4880207;29;20576;-51
2021/11/12 09:28:53;;;;;;;4.53;2.67;;;12.90;99.90;;;;;;4870125;29;20080;-52
2021/11/12 09:31:20;;;;;;;4.00;2.60;;;12.90;99.90;;;;;;4882469;29;20155;-50
2021/11/12 09:33:47;;;;;;;3.83;2.47;;;13.00;99.90;;;;;;4868794;29;20507;-49
2021/11/12 09:36:14;;;;;;;4.20;2.50;;;13.10;99.90;;;;;;4876708;29;20140;-46
2021/11/12 09:38:41;;;;;;;4.30;2.80;;;13.10;99.90;;;;;;4872336;29;20128;-47
2021/11/12 09:41:08;;;;;;;3.88;2.67;;;13.10;99.90;;;;;;4858956;29;20574;-50
2021/11/12 09:43:35;;;;;;;3.28;2.30;;;13.10;99.90;;;;;;4882513;29;20163;-48
2021/11/12 09:46:03;;;;;;;3.28;2.08;;;13.10;99.90;;;;;;4884579;29;20570;-50
2021/11/12 09:48:30;;;;;;;3.03;2.08;;;13.20;99.90;;;;;;4884412;29;20571;-49
2021/11/12 09:50:57;;;;;;;2.95;2.20;;;13.30;99.90;;;;;;4883992;29;20131;-51
2021/11/12 09:53:24;;;;;;;2.83;2.10;;;13.30;99.90;;;;;;4882069;29;20085;-51
2021/11/12 09:55:53;;;;;;;4.15;2.63;;;13.30;99.90;;;;;;4880337;29;20183;-48
2021/11/12 09:58:21;;;;;;;2.33;1.90;;;13.30;99.90;;;;;;4879412;29;20488;-46
2021/11/12 10:00:54;;;;;;;2.55;2.00;;;13.40;99.90;;;;;;4873047;29;20141;-49
2021/11/12 10:03:22;;;;;;;4.03;2.05;;;13.40;99.90;;;;;;4873182;29;20048;-46
2021/11/12 10:05:49;;;;;;;2.22;2.03;;;13.40;99.90;;;;;;4876260;29;20532;-47
2021/11/12 10:08:31;;;;;;;3.05;2.53;;;13.30;99.90;;;;;;4869261;29;20124;-47
2021/11/12 10:11:06;;;;;;;2.00;1.37;;;13.40;99.90;;;;;;4866471;29;20167;-47
2021/11/12 10:13:36;;;;;;;2.90;1.85;;;13.40;99.90;;;;;;4856818;29;20055;-51
2021/11/12 10:16:16;;;;;;;2.63;1.83;;;13.40;99.90;;;;;;4872379;29;20060;-48
2021/11/12 10:18:58;;;;;;;3.17;2.10;;;13.30;99.90;;;;;;4876589;29;20316;-45
2021/11/12 10:21:33;;;;;;;2.90;2.28;;;13.30;99.90;;;;;;4870896;29;20393;-51
2021/11/12 10:24:01;;;;;;;2.20;1.95;;;13.20;99.90;;;;;;4868720;29;20568;-50
2021/11/12 10:26:32;;;;;;;2.13;1.70;;;13.20;99.90;;;;;;4873570;29;20845;-48
2021/11/12 10:29:08;;;;;;;2.30;2.10;;;13.20;99.90;;;;;;4876719;29;20159;-48
2021/11/12 10:31:48;;;;;;;2.83;1.60;;;13.20;99.90;;;;;;4867300;29;20055;-53
2021/11/12 10:34:20;;;;;;;3.03;2.08;;;13.20;99.90;;;;;;4874686;29;20311;-52
2021/11/12 10:36:54;;;;;;;2.47;1.80;;;13.20;99.90;;;;;;4874588;29;20159;-46
2021/11/12 10:39:52;;;;;;;2.15;1.40;;;13.30;99.90;;;;;;4878610;29;20145;-50
2021/11/12 10:42:24;;;;;;;3.15;1.67;;;13.30;99.90;;;;;;4871415;29;20835;-51
2021/11/12 10:44:59;;;;;;;2.00;1.45;;;13.20;99.90;;;;;;4880563;29;20209;-45
2021/11/12 10:47:28;;;;;;;1.80;1.40;;;13.20;99.90;;;;;;4870749;29;20136;-52
2021/11/12 10:49:59;;;;;;;2.15;1.40;;;13.20;99.90;;;;;;4872783;29;20076;-54
2021/11/12 10:52:27;;;;;;;1.77;1.50;;;13.20;99.90;;;;;;4858584;29;20474;-50
2021/11/12 10:55:17;;;;;;;1.73;1.50;;;13.20;99.90;;;;;;4871625;29;20442;-48
2021/11/12 10:57:55;;;;;;;2.58;1.50;;;13.20;99.90;;;;;;4851740;29;20446;-51
2021/11/12 11:00:29;;;;;;;1.88;1.33;;;13.10;99.90;;;;;;4877888;29;20135;-51
2021/11/12 11:03:03;;;;;;;1.85;0.90;;;13.20;99.90;;;;;;4870178;29;20076;-52
2021/11/12 11:05:40;;;;;;;1.20;0.98;;;13.20;99.90;;;;;;4869083;29;20336;-52
2021/11/12 11:08:20;;;;;;;1.40;1.13;;;13.30;99.90;;;;;;4866296;29;20141;-52
2021/11/12 11:10:52;;;;;;;1.40;1.10;;;13.40;99.90;;;;;;4879090;29;20053;-50
2021/11/12 11:13:24;;;;;;;1.25;0.90;;;13.40;99.90;;;;;;4853987;29;20488;-47
2021/11/12 11:15:55;;;;;;;2.05;1.20;;;13.40;99.90;;;;;;4879710;29;20147;-50
2021/11/12 11:18:26;;;;;;;1.33;0.93;;;13.40;99.90;;;;;;4873668;29;20472;-46
2021/11/12 11:21:05;;;;;;;2.88;1.10;;;13.50;99.90;;;;;;4877025;29;20092;-48
2021/11/12 11:24:04;;;;;;;1.73;1.10;;;13.50;99.90;;;;;;4869949;29;20495;-49
2021/11/12 11:26:44;;;;;;;1.92;1.08;;;13.70;99.90;;;;;;4868708;29;20053;-49
2021/11/12 11:29:12;;;;;;;2.38;1.17;;;13.70;99.90;;;;;;4868567;29;20605;-51
2021/11/12 11:31:40;;;;;;;1.70;1.13;;;13.80;99.90;;;;;;4878829;29;20110;-51
2021/11/12 11:34:06;;;;;;;3.70;1.20;;;13.80;99.90;;;;;;4874141;29;20168;-53
2021/11/12 11:36:36;;;;;;;2.45;1.35;;;13.90;99.90;;;;;;4861919;29;20136;-50
2021/11/12 11:39:05;;;;;;;1.88;1.17;;;14.00;99.90;;;;;;4872951;29;20263;-50
2021/11/12 11:41:32;;;;;;;2.63;1.30;;;14.00;99.90;;;;;;4873199;29;20896;-49
2021/11/12 11:43:59;;;;;;;2.50;1.30;;;14.00;99.90;;;;;;4859969;29;20140;-44
2021/11/12 11:46:30;;;;;;;4.13;1.30;;;14.20;99.90;;;;;;4864432;29;20526;-47
2021/11/12 11:48:58;;;;;;;1.83;1.20;;;14.30;99.90;;;;;;4869549;29;20084;-49
2021/11/12 11:51:31;;;;;;;5.50;1.92;;;14.40;99.90;;;;;;4869359;29;20466;-48
2021/11/12 11:54:05;;;;;;;3.55;1.67;;;14.40;99.90;;;;;;4883954;29;20099;-46
2021/11/12 11:56:42;;;;;;;2.40;1.30;;;14.40;99.90;;;;;;4867242;29;20115;-48
2021/11/12 11:59:10;;;;;;;2.85;1.33;;;14.50;99.90;;;;;;4877329;29;20351;-47
2021/11/12 12:01:48;;;;;;;3.92;1.30;;;14.60;99.90;;;;;;4869084;29;20080;-50
2021/11/12 12:04:15;;;;;;;2.50;1.35;;;14.70;99.90;;;;;;4884565;29;20567;-50
2021/11/12 12:07:00;;;;;;;3.65;1.63;;;14.80;99.90;;;;;;4867739;29;20120;-48
2021/11/12 12:09:39;;;;;;;2.28;1.23;;;14.90;99.90;;;;;;4879589;29;20052;-51
2021/11/12 12:12:06;;;;;;;4.80;1.50;;;15.10;99.90;;;;;;4888158;29;20053;-51
2021/11/12 12:14:34;;;;;;;2.72;1.30;;;15.20;99.90;;;;;;4856173;29;20088;-51
2021/11/12 12:17:09;;;;;;;2.70;1.48;;;15.20;99.90;;;;;;4846984;29;20235;-52
2021/11/12 12:19:48;;;;;;;3.20;1.35;;;15.30;99.90;;;;;;4881687;29;20080;-46
2021/11/12 13:25:46;;;;;;;11.48;3.58;;;17.00;94.20;;;;;;4879599;29;20201;-45
2021/11/12 13:28:33;;;;;;;9.23;3.42;;;16.70;94.80;;;;;;4855551;29;20057;-50
2021/11/12 13:31:18;;;;;;;7.45;2.75;;;16.50;95.40;;;;;;4866764;29;20085;-45
2021/11/12 13:33:46;;;;;;;8.55;2.80;;;16.30;95.20;;;;;;4879343;29;20629;-48
2021/11/12 13:36:20;;;;;;;8.15;3.03;;;16.20;95.60;;;;;;4876258;29;20136;-48
2021/11/12 13:39:08;;;;;;;7.43;2.97;;;16.20;96.00;;;;;;4864119;29;20093;-47
2021/11/12 13:41:43;;;;;;;8.93;3.25;;;16.60;94.60;;;;;;4864881;29;20460;-50
2021/11/12 13:44:21;;;;;;;9.10;4.05;;;16.60;94.70;;;;;;4868650;29;20796;-53
2021/11/12 13:46:53;;;;;;;8.23;3.30;;;16.50;95.20;;;;;;4865874;29;20184;-51
2021/11/12 13:49:40;;;;;;;9.95;3.88;;;16.40;95.70;;;;;;4877530;29;20092;-53
2021/11/12 13:52:10;;;;;;;7.70;2.90;;;16.50;95.60;;;;;;4860233;29;20139;-50
2021/11/12 13:54:48;;;;;;;7.05;2.92;;;16.50;95.50;;;;;;4873006;29;20052;-46
2021/11/12 13:57:18;;;;;;;9.95;3.33;;;16.40;96.30;;;;;;4857938;29;20060;-48
2021/11/12 13:59:59;;;;;;;9.60;3.15;;;16.30;96.20;;;;;;4880962;29;20055;-51
2021/11/12 14:02:27;;;;;;;7.57;2.67;;;16.10;96.10;;;;;;4876363;29;20116;-47
2021/11/12 14:05:05;;;;;;;9.23;3.58;;;16.00;96.30;;;;;;4883785;29;20120;-47
2021/11/12 14:07:32;;;;;;;8.90;3.30;;;16.00;96.30;;;;;;4850429;29;20255;-46
2021/11/12 14:10:00;;;;;;;11.75;3.58;;;16.00;96.10;;;;;;4868967;29;20155;-45
2021/11/12 14:12:28;;;;;;;9.00;4.10;;;15.90;96.10;;;;;;4876507;29;20144;-49
2021/11/12 14:15:12;;;;;;;13.00;4.18;;;15.90;95.70;;;;;;4876691;29;20048;-47
2021/11/12 14:18:01;;;;;;;13.30;3.90;;;15.90;95.90;;;;;;4874550;29;20060;-48
2021/11/12 14:20:30;;;;;;;12.15;4.07;;;15.80;96.10;;;;;;4868904;29;20419;-46
2021/11/12 14:23:16;;;;;;;13.93;4.25;;;15.70;96.20;;;;;;4880262;29;20555;-46
2021/11/12 14:26:20;;;;;;;12.73;4.22;;;15.60;96.70;;;;;;4857634;29;20560;-48
2021/11/12 14:28:54;;;;;;;11.65;3.60;;;15.40;96.30;;;;;;4865054;29;20084;-47
2021/11/12 14:36:44;;;;;;;14.90;3.80;;;15.20;96.60;;;;;;4865429;29;20274;-52
2021/11/12 14:40:07;;;;;;;10.10;3.75;;;15.10;96.80;;;;;;4843003;29;20449;-44
2021/11/12 14:45:08;;;;;;;16.23;4.10;;;15.10;96.00;;;;;;4870068;29;20060;-54
2021/11/12 14:53:34;;;;;;;14.55;5.25;;;15.00;96.40;;;;;;4873740;29;20492;-48
2021/11/12 14:58:34;;;;;;;11.60;4.30;;;14.80;96.90;;;;;;4882499;29;20109;-51
2021/11/12 15:01:06;;;;;;;12.40;4.53;;;14.70;97.10;;;;;;4864958;29;20088;-52
2021/11/12 15:03:34;;;;;;;14.45;4.95;;;14.70;97.50;;;;;;4871812;29;20426;-48
2021/11/12 15:06:01;;;;;;;13.45;4.63;;;14.50;98.50;;;;;;4864732;29;20145;-50
2021/11/12 15:08:29;;;;;;;10.73;4.45;;;14.40;98.90;;;;;;4880809;29;20138;-51
2021/11/12 15:10:57;;;;;;;16.63;4.57;;;14.30;99.40;;;;;;4882560;29;20080;-46
2021/11/12 15:13:27;;;;;;;16.88;4.80;;;14.20;99.40;;;;;;4873744;29;20135;-48
2021/11/12 15:15:54;;;;;;;16.45;5.10;;;14.10;99.90;;;;;;4864495;29;20470;-53
2021/11/12 15:18:22;;;;;;;14.43;5.22;;;14.10;99.90;;;;;;4863478;29;20164;-51
2021/11/12 15:20:50;;;;;;;17.70;4.97;;;14.00;99.90;;;;;;4864979;29;20345;-47
2021/11/12 15:33:38;;;;;;;10.25;3.92;;;13.80;99.90;;;;;;4863733;29;20145;-50
2021/11/12 15:36:09;;;;;;;8.95;3.40;;;13.80;99.90;;;;;;4863434;29;20426;-49
2021/11/12 15:38:44;;;;;;;13.07;4.32;;;13.70;99.90;;;;;;4862016;29;20314;-50
2021/11/12 15:41:28;;;;;;;10.52;4.07;;;13.70;99.90;;;;;;4863457;29;20148;-51
2021/11/12 15:44:16;;;;;;;9.40;3.88;;;13.70;99.90;;;;;;4863457;29;20057;-52
2021/11/12 15:46:46;;;;;;;8.65;2.92;;;13.70;99.90;;;;;;4848922;29;20417;-49
2021/11/12 15:49:17;;;;;;;9.80;3.42;;;13.70;99.90;;;;;;4864258;29;20088;-50
2021/11/12 15:51:49;;;;;;;9.55;3.40;;;13.70;99.90;;;;;;4863099;29;20484;-49
2021/11/12 16:12:46;;;;;;;7.55;2.92;;;13.20;99.90;;;;;;4875175;29;20133;-48
2021/11/12 16:15:29;;;;;;;7.15;2.90;;;13.20;99.90;;;;;;4866355;29;20056;-48
2021/11/12 16:18:14;;;;;;;7.95;3.13;;;13.10;99.90;;;;;;4859234;29;20052;-46
2021/11/12 16:25:39;;;;;;;4.43;2.20;;;13.10;99.90;;;;;;4873219;29;20144;-46
2021/11/12 16:28:06;;;;;;;7.45;2.45;;;13.10;99.90;;;;;;4865018;29;20162;-48
2021/11/12 16:30:35;;;;;;;6.05;2.33;;;13.00;99.90;;;;;;4866165;29;20203;-45
2021/11/12 16:33:04;;;;;;;7.35;2.60;;;13.00;99.90;;;;;;4873971;29;20446;-46
2021/11/12 16:35:34;;;;;;;6.90;2.47;;;13.00;99.90;;;;;;4880722;29;20143;-48
2021/11/12 16:38:17;;;;;;;4.97;2.30;;;13.00;99.90;;;;;;4878756;29;20140;-53
2021/11/12 16:40:48;;;;;;;5.93;2.50;;;13.00;99.90;;;;;;4882395;29;20143;-49
2021/11/12 16:43:25;;;;;;;7.32;2.85;;;12.90;99.90;;;;;;4880032;29;20143;-52
2021/11/12 16:46:21;;;;;;;8.52;2.80;;;13.00;99.90;;;;;;4880128;29;20088;-47
2021/11/12 16:56:53;;;;;;;7.72;3.03;;;13.00;99.90;;;;;;4875704;29;20045;-48
2021/11/12 17:04:36;;;;;;;8.02;4.10;;;13.00;99.90;;;;;;4869585;29;20053;-53
2021/11/12 17:15:26;;;;;;;9.70;3.53;;;13.00;99.90;;;;;;4829162;29;20411;-52
2021/11/12 17:45:24;;;;;;;7.20;2.85;;;12.90;99.90;;;;;;4851552;29;20083;-50
2021/11/12 17:47:52;;;;;;;7.68;2.88;;;13.00;99.90;;;;;;4872723;29;20113;-51
2021/11/12 17:51:08;;;;;;;7.28;3.05;;;13.00;99.90;;;;;;4870819;29;20065;-50
2021/11/12 18:04:09;;;;;;;10.20;3.88;;;12.90;99.90;;;;;;4875341;29;20459;-48
2021/11/12 18:06:41;;;;;;;12.75;3.70;;;12.90;99.90;;;;;;4882880;29;20104;-48
2021/11/12 18:09:41;;;;;;;7.32;3.15;;;12.90;99.90;;;;;;4873469;29;20075;-51
2021/11/12 18:20:46;;;;;;;8.55;3.00;;;12.90;99.90;;;;;;4883486;29;20505;-51
2021/11/12 18:23:40;;;;;;;7.53;2.70;;;12.90;99.90;;;;;;4863522;29;20052;-47
2021/11/12 21:45:13;;;;;;;4.07;1.50;;;12.60;99.90;;;;;;4869259;29;20065;-52
2021/11/12 21:47:18;;;;;;;2.35;1.33;;;12.60;99.90;;;;;;4865327;29;20052;-48
2021/11/12 21:49:44;;;;;;;2.40;1.10;;;12.60;99.90;;;;;;4874715;29;20048;-52
2021/11/12 21:52:11;;;;;;;2.35;1.00;;;12.60;99.90;;;;;;4884781;29;20501;-50
2021/11/12 21:54:38;;;;;;;1.95;0.90;;;12.60;99.90;;;;;;4851332;29;20655;-49
2021/11/12 21:57:05;;;;;;;3.42;1.20;;;12.60;99.90;;;;;;4877281;29;20101;-50
2021/11/12 21:59:32;;;;;;;2.50;1.00;;;12.60;99.90;;;;;;4863006;29;20140;-53
2021/11/12 22:01:59;;;;;;;2.13;1.13;;;12.60;99.90;;;;;;4867956;29;20084;-47
2021/11/12 22:04:27;;;;;;;4.28;1.70;;;12.60;99.90;;;;;;4865036;29;20093;-51
2021/11/12 22:06:55;;;;;;;3.28;1.40;;;12.60;99.90;;;;;;4883243;29;20061;-51
2021/11/12 22:09:24;;;;;;;3.65;1.50;;;12.60;99.90;;;;;;4882746;29;20655;-49
2021/11/12 22:11:50;;;;;;;3.83;1.48;;;12.60;99.90;;;;;;4878754;29;20526;-52
2021/11/12 22:14:19;;;;;;;2.70;1.55;;;12.70;99.90;;;;;;4867708;29;20147;-49
2021/11/12 22:16:48;;;;;;;2.40;1.55;;;12.60;99.90;;;;;;4870220;29;20060;-52
2021/11/12 22:19:16;;;;;;;3.03;1.33;;;12.60;99.90;;;;;;4882252;29;20060;-50
2021/11/12 22:21:42;;;;;;;3.05;1.75;;;12.60;99.90;;;;;;4873391;29;20048;-48
2021/11/12 22:24:11;;;;;;;5.88;2.53;;;12.60;99.90;;;;;;4878126;29;20449;-50
2021/11/12 22:26:46;;;;;;;3.70;1.85;;;12.60;99.90;;;;;;4883549;29;20052;-49
2021/11/12 22:29:13;;;;;;;3.70;1.58;;;12.60;99.90;;;;;;4853591;29;20163;-46
2021/11/12 22:31:39;;;;;;;5.03;2.10;;;12.60;99.90;;;;;;4880743;29;20127;-49
2021/11/12 22:34:06;;;;;;;3.70;1.60;;;12.60;99.90;;;;;;4869018;29;21025;-51
2021/11/12 22:36:33;;;;;;;4.07;1.60;;;12.60;99.90;;;;;;4856964;29;20116;-52
2021/11/12 22:39:00;;;;;;;3.22;1.48;;;12.60;99.90;;;;;;4870188;29;20524;-48
2021/11/12 22:41:27;;;;;;;3.60;1.50;;;12.60;99.90;;;;;;4883038;29;20135;-50
2021/11/12 22:43:59;;;;;;;5.53;1.70;;;12.60;99.90;;;;;;4883607;29;20186;-52
2021/11/12 22:46:28;;;;;;;3.35;1.30;;;12.60;99.90;;;;;;4871923;29;20064;-48
2021/11/12 22:48:55;;;;;;;3.58;1.40;;;12.50;99.90;;;;;;4874389;29;20463;-51
2021/11/12 22:51:23;;;;;;;2.47;1.23;;;12.50;99.90;;;;;;4865555;29;20076;-51
2021/11/12 22:53:50;;;;;;;4.55;1.95;;;12.40;99.90;;;;;;4882410;29;20591;-50
2021/11/12 22:56:17;;;;;;;5.00;1.60;;;12.30;99.90;;;;;;4871125;29;20542;-53
2021/11/12 22:58:44;;;;;;;3.00;1.63;;;12.30;99.90;;;;;;4865908;29;20088;-50
2021/11/12 23:01:17;;;;;;;5.18;2.03;;;12.20;99.90;;;;;;4864284;29;20842;-51